createdAt,value
2019-04-07T00:02:38.577Z,1.40
2019-04-07T00:05:27.780Z,1.30
2019-04-07T00:08:20.554Z,1.30
2019-04-07T00:11:15.084Z,1.27
2019-04-07T00:14:08.336Z,1.55
2019-04-07T00:17:01.784Z,1.50
2019-04-07T00:19:55.736Z,1.17
2019-04-07T00:22:50.034Z,1.40
2019-04-07T00:25:42.997Z,1.20
2019-04-07T00:28:35.818Z,1.15
2019-04-07T00:31:28.962Z,1.05
2019-04-07T00:34:16.044Z,1.07
2019-04-07T00:37:05.620Z,1.10
2019-04-07T00:39:58.976Z,1.00
2019-04-07T00:42:51.881Z,1.10
2019-04-07T00:45:52.622Z,1.05
2019-04-07T00:48:48.600Z,1.00
2019-04-07T00:51:43.221Z,1.00
2019-04-07T00:54:35.939Z,1.00
2019-04-07T00:57:28.681Z,0.93
2019-04-07T01:00:18.230Z,0.98
2019-04-07T01:03:08.653Z,0.90
2019-04-07T01:06:02.213Z,0.98
2019-04-07T01:08:55.017Z,1.00
2019-04-07T01:11:48.568Z,0.90
2019-04-07T01:14:41.764Z,1.10
2019-04-07T01:17:35.466Z,0.90
2019-04-07T01:20:28.779Z,1.07
2019-04-07T01:23:22.342Z,1.07
2019-04-07T01:26:22.824Z,1.07
2019-04-07T01:29:15.883Z,1.00
2019-04-07T01:32:09.195Z,0.90
2019-04-07T01:35:02.760Z,0.82
2019-04-07T01:37:57.064Z,1.10
2019-04-07T01:40:49.902Z,1.00
2019-04-07T01:43:48.168Z,0.80
2019-04-07T01:46:56.239Z,1.10
2019-04-07T01:49:58.870Z,1.20
2019-04-07T01:53:15.386Z,1.00
2019-04-07T01:56:26.276Z,1.00
2019-04-07T01:59:40.842Z,1.00
2019-04-07T02:02:47.840Z,0.90
2019-04-07T02:06:02.610Z,0.90
2019-04-07T02:12:35.148Z,1.27
2019-04-07T02:15:35.788Z,1.00
2019-04-07T02:18:42.409Z,0.93
2019-04-07T02:21:46.548Z,0.90
2019-04-07T02:24:53.685Z,0.90
2019-04-07T02:28:00.053Z,1.00
2019-04-07T02:31:04.041Z,0.90
2019-04-07T02:34:01.721Z,1.22
2019-04-07T02:37:03.037Z,0.90
2019-04-07T02:40:06.310Z,0.95
2019-04-07T02:43:10.514Z,0.98
2019-04-07T02:46:18.269Z,0.93
2019-04-07T02:49:22.250Z,1.00
2019-04-07T02:52:26.844Z,0.90
2019-04-07T02:55:30.043Z,1.30
2019-04-07T02:58:36.264Z,0.90
2019-04-07T03:01:41.373Z,1.00
2019-04-07T03:04:41.622Z,1.10
2019-04-07T03:07:47.831Z,1.30
2019-04-07T03:11:03.534Z,1.02
2019-04-07T03:14:07.196Z,1.20
2019-04-07T03:17:09.869Z,0.98
2019-04-07T03:20:18.492Z,0.82
2019-04-07T03:23:22.266Z,1.05
2019-04-07T03:26:26.926Z,0.90
2019-04-07T03:29:31.509Z,0.93
2019-04-07T03:32:35.796Z,1.00
2019-04-07T03:35:38.382Z,1.10
2019-04-07T03:38:41.302Z,1.00
2019-04-07T03:41:55.533Z,1.20
2019-04-07T03:45:08.251Z,1.35
2019-04-07T03:48:15.868Z,1.00
2019-04-07T03:51:30.001Z,0.78
2019-04-07T03:54:31.728Z,1.10
2019-04-07T03:57:32.479Z,1.10
2019-04-07T04:00:36.459Z,1.40
2019-04-07T04:03:43.965Z,1.22
2019-04-07T04:06:54.757Z,1.00
2019-04-07T04:10:10.412Z,1.25
2019-04-07T04:13:14.997Z,1.12
2019-04-07T04:16:23.009Z,0.98
2019-04-07T04:19:18.819Z,0.90
2019-04-07T04:22:21.050Z,1.10
2019-04-07T04:25:13.321Z,1.60
2019-04-07T04:28:02.640Z,1.07
2019-04-07T04:30:56.511Z,0.93
2019-04-07T04:33:55.657Z,1.05
2019-04-07T04:36:48.360Z,1.05
2019-04-07T04:39:44.623Z,1.22
2019-04-07T04:42:37.580Z,1.00
2019-04-07T04:45:30.095Z,1.05
2019-04-07T04:48:19.721Z,0.80
2019-04-07T04:51:08.898Z,1.15
2019-04-07T04:53:56.401Z,1.00
2019-04-07T04:56:49.277Z,0.95
2019-04-07T04:59:42.322Z,1.25
2019-04-07T05:02:35.378Z,0.90
2019-04-07T05:05:29.196Z,1.00
2019-04-07T05:08:22.008Z,1.00
2019-04-07T05:11:15.872Z,1.25
2019-04-07T05:14:16.481Z,1.10
2019-04-07T05:17:09.992Z,0.90
2019-04-07T05:20:02.716Z,1.35
2019-04-07T05:22:57.615Z,1.20
2019-04-07T05:25:51.502Z,1.00
2019-04-07T05:28:45.042Z,1.10
2019-04-07T05:31:37.986Z,1.00
2019-04-07T05:34:31.155Z,1.20
2019-04-07T05:37:19.976Z,1.15
2019-04-07T05:40:13.304Z,1.35
2019-04-07T05:43:06.320Z,1.20
2019-04-07T05:45:59.399Z,1.30
2019-04-07T05:48:55.476Z,0.90
2019-04-07T05:51:47.994Z,1.30
2019-04-07T05:54:41.132Z,1.12
2019-04-07T05:57:48.777Z,0.85
2019-04-07T06:00:45.751Z,1.00
2019-04-07T06:03:31.194Z,1.10
2019-04-07T06:06:25.797Z,1.02
2019-04-07T06:09:20.760Z,0.98
2019-04-07T06:12:13.317Z,0.80
2019-04-07T06:15:06.610Z,1.00
2019-04-07T06:18:01.389Z,1.40
2019-04-07T06:20:52.971Z,1.45
2019-04-07T06:23:46.289Z,0.98
2019-04-07T06:26:42.863Z,0.93
2019-04-07T06:29:36.610Z,1.00
2019-04-07T06:32:25.480Z,1.10
2019-04-07T06:35:20.868Z,0.88
2019-04-07T06:38:10.799Z,1.00
2019-04-07T06:41:03.854Z,1.37
2019-04-07T06:44:08.940Z,1.10
2019-04-07T06:47:04.666Z,1.00
2019-04-07T06:50:27.016Z,1.30
2019-04-07T06:53:24.713Z,1.40
2019-04-07T06:56:34.561Z,1.22
2019-04-07T06:59:49.089Z,0.93
2019-04-07T07:02:56.615Z,1.45
2019-04-07T07:06:03.756Z,1.70
2019-04-07T07:12:40.210Z,0.98
2019-04-07T07:15:53.272Z,1.40
2019-04-07T07:19:02.045Z,1.20
2019-04-07T07:22:06.481Z,1.70
2019-04-07T07:25:00.051Z,1.87
2019-04-07T07:27:51.154Z,1.57
2019-04-07T07:30:45.315Z,1.12
2019-04-07T07:33:40.420Z,0.90
2019-04-07T07:36:31.682Z,1.00
2019-04-07T07:39:22.968Z,1.07
2019-04-07T07:42:14.729Z,1.10
2019-04-07T07:45:10.919Z,1.20
2019-04-07T07:48:00.949Z,1.40
2019-04-07T07:50:55.813Z,1.42
2019-04-07T07:53:49.169Z,1.35
2019-04-07T07:56:41.539Z,1.80
2019-04-07T07:59:37.660Z,1.72
2019-04-07T08:02:24.747Z,1.40
2019-04-07T08:05:18.186Z,1.82
2019-04-07T08:08:08.324Z,1.90
2019-04-07T08:11:03.657Z,1.30
2019-04-07T08:13:57.885Z,1.27
2019-04-07T08:16:51.305Z,1.40
2019-04-07T08:22:50.434Z,1.30
2019-04-07T08:25:43.817Z,1.52
2019-04-07T08:28:45.035Z,1.00
2019-04-07T08:31:38.429Z,1.37
2019-04-07T08:34:32.913Z,1.00
2019-04-07T08:37:35.230Z,1.40
2019-04-07T08:40:29.379Z,1.10
2019-04-07T08:43:23.410Z,0.95
2019-04-07T08:46:29.980Z,1.07
2019-04-07T08:49:23.694Z,1.25
2019-04-07T08:52:13.545Z,1.15
2019-04-07T08:55:07.295Z,0.70
2019-04-07T08:58:02.439Z,0.98
2019-04-07T09:00:54.763Z,0.80
2019-04-07T09:03:45.684Z,1.00
2019-04-07T09:06:38.577Z,0.85
2019-04-07T09:09:46.605Z,0.70
2019-04-07T09:12:35.017Z,0.78
2019-04-07T09:15:43.352Z,1.17
2019-04-07T09:18:38.903Z,0.90
2019-04-07T09:21:42.546Z,0.93
2019-04-07T09:24:45.052Z,1.00
2019-04-07T09:27:55.820Z,1.70
2019-04-07T09:31:16.426Z,1.00
2019-04-07T09:34:23.074Z,1.30
2019-04-07T09:37:36.702Z,0.90
2019-04-07T09:40:38.302Z,1.00
2019-04-07T09:44:02.158Z,1.10
2019-04-07T09:50:29.487Z,0.72
2019-04-07T09:53:34.945Z,1.00
2019-04-07T09:56:57.264Z,0.90
2019-04-07T10:00:01.896Z,0.90
2019-04-07T10:03:12.688Z,0.93
2019-04-07T10:06:21.806Z,1.02
2019-04-07T10:09:27.975Z,0.80
2019-04-07T10:12:35.575Z,0.80
2019-04-07T10:15:38.602Z,0.80
2019-04-07T10:18:42.907Z,0.80
2019-04-07T10:21:51.080Z,0.93
2019-04-07T10:24:56.035Z,0.70
2019-04-07T10:28:00.596Z,0.80
2019-04-07T10:31:03.398Z,0.70
2019-04-07T10:34:12.996Z,0.90
2019-04-07T10:37:13.390Z,0.70
2019-04-07T10:40:19.746Z,0.60
2019-04-07T10:43:17.372Z,0.90
2019-04-07T10:46:27.182Z,0.95
2019-04-07T10:49:34.089Z,0.70
2019-04-07T10:53:01.427Z,0.80
2019-04-07T10:56:05.577Z,0.80
2019-04-07T10:59:24.650Z,0.85
2019-04-07T11:02:27.608Z,0.80
2019-04-07T11:05:31.464Z,0.95
2019-04-07T11:08:35.828Z,0.95
2019-04-07T11:11:49.322Z,1.00
2019-04-07T11:14:50.131Z,0.80
2019-04-07T11:18:06.505Z,0.90
2019-04-07T11:21:07.696Z,0.70
2019-04-07T11:24:08.934Z,1.25
2019-04-07T11:27:19.042Z,1.32
2019-04-07T11:30:34.486Z,0.90
2019-04-07T11:33:41.865Z,0.68
2019-04-07T11:36:45.339Z,0.72
2019-04-07T11:39:51.384Z,0.70
2019-04-07T11:42:56.115Z,0.60
2019-04-07T11:46:02.900Z,0.78
2019-04-07T11:49:13.494Z,0.50
2019-04-07T11:52:23.846Z,0.80
2019-04-07T11:55:29.166Z,0.80
2019-04-07T11:58:36.071Z,0.70
2019-04-07T12:01:57.099Z,0.60
2019-04-07T12:04:58.964Z,0.70
2019-04-07T12:08:05.031Z,0.70
2019-04-07T12:11:15.678Z,0.90
2019-04-07T12:14:22.850Z,0.70
2019-04-07T12:17:42.036Z,0.60
2019-04-07T12:20:53.993Z,0.80
2019-04-07T12:24:03.259Z,0.90
2019-04-07T12:27:01.991Z,0.62
2019-04-07T12:30:08.961Z,0.78
2019-04-07T12:33:25.313Z,0.70
2019-04-07T12:36:33.257Z,0.80
2019-04-07T12:39:40.665Z,0.80
2019-04-07T12:42:55.983Z,1.07
2019-04-07T12:45:55.445Z,1.00
2019-04-07T12:49:05.399Z,0.60
2019-04-07T12:52:16.374Z,0.80
2019-04-07T12:55:24.066Z,1.00
2019-04-07T12:58:35.677Z,0.90
2019-04-07T13:01:37.099Z,0.78
2019-04-07T13:04:50.531Z,0.88
2019-04-07T13:07:58.453Z,1.00
2019-04-07T13:11:09.597Z,0.70
2019-04-07T13:14:12.140Z,0.70
2019-04-07T13:17:15.964Z,0.70
2019-04-07T13:20:34.933Z,0.90
2019-04-07T13:23:51.462Z,0.90
2019-04-07T13:27:07.881Z,0.62
2019-04-07T13:30:16.046Z,0.80
2019-04-07T13:33:20.567Z,0.80
2019-04-07T13:36:31.302Z,0.90
2019-04-07T13:39:31.374Z,0.90
2019-04-07T13:42:35.741Z,0.80
2019-04-07T13:48:58.809Z,0.72
2019-04-07T13:52:00.872Z,0.90
2019-04-07T13:55:07.761Z,0.70
2019-04-07T13:58:19.672Z,0.80
2019-04-07T14:01:35.859Z,0.68
2019-04-07T14:04:56.170Z,0.80
2019-04-07T14:07:55.916Z,0.78
2019-04-07T14:11:00.387Z,0.70
2019-04-07T14:14:12.847Z,1.45
2019-04-07T14:17:19.654Z,0.98
2019-04-07T14:20:32.875Z,1.55
2019-04-07T14:23:50.088Z,1.30
2019-04-07T14:27:02.147Z,0.98
2019-04-07T14:30:11.568Z,0.80
2019-04-07T14:33:15.485Z,0.75
2019-04-07T14:36:19.620Z,0.78
2019-04-07T14:39:27.139Z,0.70
2019-04-07T14:42:30.537Z,0.65
2019-04-07T14:45:39.604Z,0.72
2019-04-07T14:48:43.717Z,0.70
2019-04-07T14:51:46.091Z,0.95
2019-04-07T14:54:59.091Z,0.82
2019-04-07T14:58:01.258Z,1.00
2019-04-07T15:01:08.007Z,0.80
2019-04-07T15:03:58.840Z,0.50
2019-04-07T15:06:53.736Z,0.80
2019-04-07T15:09:51.269Z,0.60
2019-04-07T15:12:50.215Z,0.80
2019-04-07T15:15:43.215Z,0.70
2019-04-07T15:18:37.088Z,0.50
2019-04-07T15:21:33.322Z,0.78
2019-04-07T15:24:26.604Z,0.45
2019-04-07T15:27:23.619Z,0.50
2019-04-07T15:30:13.349Z,0.70
2019-04-07T15:33:05.154Z,0.60
2019-04-07T15:36:02.174Z,0.65
2019-04-07T15:42:04.142Z,0.85
2019-04-07T15:44:57.722Z,0.70
2019-04-07T15:48:03.306Z,0.55
2019-04-07T15:51:00.959Z,0.80
2019-04-07T15:53:51.690Z,0.50
2019-04-07T15:56:43.428Z,0.65
2019-04-07T15:59:35.789Z,0.60
2019-04-07T16:02:28.983Z,0.70
2019-04-07T16:05:22.666Z,0.50
2019-04-07T16:08:16.158Z,0.65
2019-04-07T16:11:09.034Z,0.70
2019-04-07T16:14:02.900Z,0.80
2019-04-07T16:16:53.573Z,0.60
2019-04-07T16:19:50.950Z,0.62
2019-04-07T16:22:38.702Z,0.62
2019-04-07T16:25:32.247Z,0.60
2019-04-07T16:28:26.201Z,0.60
2019-04-07T16:31:15.582Z,0.50
2019-04-07T16:34:09.257Z,0.62
2019-04-07T16:37:03.736Z,0.60
2019-04-07T16:39:56.851Z,0.55
2019-04-07T16:43:04.772Z,0.50
2019-04-07T16:45:47.166Z,0.80
2019-04-07T16:48:40.321Z,0.55
2019-04-07T16:51:34.270Z,0.82
2019-04-07T16:54:26.563Z,0.80
2019-04-07T16:57:33.630Z,0.50
2019-04-07T17:00:24.862Z,0.60
2019-04-07T17:03:18.693Z,0.60
2019-04-07T17:06:07.849Z,0.70
2019-04-07T17:09:00.908Z,0.68
2019-04-07T17:12:52.498Z,0.60
2019-04-07T17:15:46.407Z,0.55
2019-04-07T17:19:02.072Z,0.60
2019-04-07T17:21:53.418Z,0.98
2019-04-07T17:24:47.839Z,0.90
2019-04-07T17:27:42.561Z,0.70
2019-04-07T17:30:43.254Z,0.80
2019-04-07T17:33:38.009Z,0.90
2019-04-07T17:36:31.018Z,0.82
2019-04-07T17:39:38.355Z,0.80
2019-04-07T17:42:28.176Z,0.80
2019-04-07T17:49:06.649Z,0.93
2019-04-07T17:52:11.206Z,0.90
2019-04-07T17:55:22.775Z,1.10
2019-04-07T17:58:44.354Z,1.10
2019-04-07T18:01:47.894Z,0.90
2019-04-07T18:04:59.103Z,1.10
2019-04-07T18:08:02.971Z,0.90
2019-04-07T18:11:11.793Z,1.12
2019-04-07T18:14:13.608Z,1.22
2019-04-07T18:17:15.040Z,0.98
2019-04-07T18:20:24.822Z,1.00
2019-04-07T18:23:28.956Z,0.90
2019-04-07T18:26:32.915Z,1.50
2019-04-07T18:29:36.755Z,1.92
2019-04-07T18:32:59.697Z,1.75
2019-04-07T18:36:07.021Z,1.10
2019-04-07T18:39:17.539Z,1.35
2019-04-07T18:42:24.063Z,3.10
2019-04-07T18:48:50.646Z,3.58
2019-04-07T18:52:05.545Z,3.90
2019-04-07T18:55:10.188Z,4.65
2019-04-07T18:58:22.820Z,2.25
2019-04-07T19:01:38.900Z,2.45
2019-04-07T19:04:41.361Z,1.52
2019-04-07T19:07:45.855Z,2.75
2019-04-07T19:11:07.214Z,3.02
2019-04-07T19:14:30.701Z,2.95
2019-04-07T19:17:21.662Z,3.33
2019-04-07T19:20:28.010Z,2.90
2019-04-07T19:23:35.146Z,2.08
2019-04-07T19:26:54.455Z,1.90
2019-04-07T19:29:48.858Z,3.45
2019-04-07T19:32:54.170Z,3.95
2019-04-07T19:35:59.343Z,4.28
2019-04-07T19:39:07.497Z,3.92
2019-04-07T19:42:14.922Z,3.67
2019-04-07T19:45:22.343Z,2.12
2019-04-07T19:48:27.235Z,3.87
2019-04-07T19:51:30.600Z,2.70
2019-04-07T19:54:37.752Z,2.25
2019-04-07T19:57:38.509Z,2.70
2019-04-07T20:00:41.554Z,2.10
2019-04-07T20:04:10.869Z,1.72
2019-04-07T20:07:20.222Z,1.95
2019-04-07T20:10:26.031Z,2.20
2019-04-07T20:13:44.621Z,1.42
2019-04-07T20:16:53.464Z,1.95
2019-04-07T20:19:55.698Z,2.87
2019-04-07T20:23:06.461Z,2.20
2019-04-07T20:26:20.748Z,1.80
2019-04-07T20:29:19.602Z,2.20
2019-04-07T20:32:36.062Z,2.20
2019-04-07T20:35:42.379Z,2.87
2019-04-07T20:42:15.881Z,2.37
2019-04-07T20:45:22.545Z,1.87
2019-04-07T20:48:23.740Z,1.70
2019-04-07T20:51:31.820Z,1.92
2019-04-07T20:54:40.105Z,1.72
2019-04-07T20:58:09.511Z,2.02
2019-04-07T21:01:10.027Z,1.62
2019-04-07T21:04:08.622Z,1.40
2019-04-07T21:07:18.583Z,2.30
2019-04-07T21:10:17.841Z,1.75
2019-04-07T21:13:18.423Z,1.87
2019-04-07T21:16:38.009Z,2.08
2019-04-07T21:19:57.475Z,1.92
2019-04-07T21:26:21.034Z,2.22
2019-04-07T21:29:26.643Z,2.72
2019-04-07T21:32:35.566Z,1.50
2019-04-07T21:35:42.651Z,1.50
2019-04-07T21:38:52.518Z,2.10
2019-04-07T21:41:52.362Z,2.62
2019-04-07T21:45:08.995Z,1.57
2019-04-07T21:48:13.700Z,2.10
2019-04-07T21:51:16.694Z,1.98
2019-04-07T21:54:20.138Z,1.92
2019-04-07T21:57:22.412Z,1.92
2019-04-07T22:00:45.423Z,2.15
2019-04-07T22:03:58.844Z,1.87
2019-04-07T22:07:09.417Z,2.67
2019-04-07T22:10:07.475Z,3.00
2019-04-07T22:13:05.007Z,3.08
2019-04-07T22:16:01.487Z,3.20
2019-04-07T22:18:49.834Z,3.35
2019-04-07T22:21:43.404Z,3.22
2019-04-07T22:24:38.346Z,3.40
2019-04-07T22:27:30.595Z,2.40
2019-04-07T22:30:24.206Z,2.90
2019-04-07T22:33:17.891Z,5.15
2019-04-07T22:36:13.256Z,5.60
2019-04-07T22:39:03.023Z,5.20
2019-04-07T22:41:57.095Z,4.70
2019-04-07T22:44:52.984Z,4.03
2019-04-07T22:47:45.515Z,3.00
2019-04-07T22:50:39.736Z,2.80
2019-04-07T22:53:33.030Z,3.05
2019-04-07T22:59:40.521Z,2.67
2019-04-07T23:02:44.855Z,2.98
2019-04-07T23:05:49.234Z,3.05
2019-04-07T23:08:43.259Z,3.17
2019-04-07T23:11:36.298Z,3.98
2019-04-07T23:14:29.864Z,3.55
2019-04-07T23:17:23.884Z,3.10
2019-04-07T23:20:17.087Z,3.77
2019-04-07T23:23:10.931Z,3.27
2019-04-07T23:26:07.500Z,3.90
2019-04-07T23:29:00.269Z,3.80
2019-04-07T23:31:54.346Z,3.58
2019-04-07T23:34:48.175Z,3.08
2019-04-07T23:40:49.338Z,2.30
2019-04-07T23:43:52.681Z,2.77
2019-04-07T23:46:45.484Z,3.85
2019-04-07T23:49:46.823Z,4.50
2019-04-07T23:52:41.168Z,4.72
2019-04-07T23:55:34.634Z,4.22
2019-04-07T23:58:27.436Z,4.85
